sensor_id;sensor_type;location;lat;lon;timestamp;temperature;humidity
32698;DHT22;19087;51.062;3.754;2023-04-25T00:01:59;10.70;99.90
32698;DHT22;19087;51.062;3.754;2023-04-25T00:04:25;10.70;99.90
32698;DHT22;19087;51.062;3.754;2023-04-25T00:06:52;10.80;99.90
32698;DHT22;19087;51.062;3.754;2023-04-25T00:09:18;10.80;99.90
32698;DHT22;19087;51.062;3.754;2023-04-25T00:11:44;10.90;99.90
32698;DHT22;19087;51.062;3.754;2023-04-25T00:14:09;10.80;99.90
32698;DHT22;19087;51.062;3.754;2023-04-25T00:16:35;10.70;99.90
32698;DHT22;19087;51.062;3.754;2023-04-25T00:19:01;10.80;99.90
32698;DHT22;19087;51.062;3.754;2023-04-25T00:21:27;10.80;99.90
32698;DHT22;19087;51.062;3.754;2023-04-25T00:23:53;10.70;99.90
32698;DHT22;19087;51.062;3.754;2023-04-25T00:26:19;10.80;99.90
32698;DHT22;19087;51.062;3.754;2023-04-25T00:28:46;10.90;99.90
32698;DHT22;19087;51.062;3.754;2023-04-25T00:31:12;10.90;99.90
32698;DHT22;19087;51.062;3.754;2023-04-25T00:36:06;10.80;99.90
32698;DHT22;19087;51.062;3.754;2023-04-25T00:38:32;10.80;99.90
32698;DHT22;19087;51.062;3.754;2023-04-25T00:40:57;10.90;99.90
32698;DHT22;19087;51.062;3.754;2023-04-25T00:43:25;11.00;99.90
32698;DHT22;19087;51.062;3.754;2023-04-25T00:45:51;11.10;99.90
32698;DHT22;19087;51.062;3.754;2023-04-25T00:48:17;11.10;99.90
32698;DHT22;19087;51.062;3.754;2023-04-25T00:50:45;11.10;99.90
32698;DHT22;19087;51.062;3.754;2023-04-25T00:53:15;11.10;99.90
32698;DHT22;19087;51.062;3.754;2023-04-25T00:55:40;11.20;99.90
32698;DHT22;19087;51.062;3.754;2023-04-25T00:58:06;11.20;99.90
32698;DHT22;19087;51.062;3.754;2023-04-25T01:00:31;11.10;99.90
32698;DHT22;19087;51.062;3.754;2023-04-25T01:02:57;11.00;99.90
32698;DHT22;19087;51.062;3.754;2023-04-25T01:05:23;10.90;99.90
32698;DHT22;19087;51.062;3.754;2023-04-25T01:07:49;10.90;99.90
32698;DHT22;19087;51.062;3.754;2023-04-25T01:10:15;10.90;99.90
32698;DHT22;19087;51.062;3.754;2023-04-25T01:12:41;10.80;99.90
32698;DHT22;19087;51.062;3.754;2023-04-25T01:15:06;10.90;99.90
32698;DHT22;19087;51.062;3.754;2023-04-25T01:17:33;10.90;99.90
32698;DHT22;19087;51.062;3.754;2023-04-25T01:19:59;10.70;99.90
32698;DHT22;19087;51.062;3.754;2023-04-25T01:22:26;10.80;99.90
32698;DHT22;19087;51.062;3.754;2023-04-25T01:24:51;10.80;99.90
32698;DHT22;19087;51.062;3.754;2023-04-25T01:27:17;10.90;99.90
32698;DHT22;19087;51.062;3.754;2023-04-25T01:29:43;10.90;99.90
32698;DHT22;19087;51.062;3.754;2023-04-25T01:32:09;10.90;99.90
32698;DHT22;19087;51.062;3.754;2023-04-25T01:34:35;11.00;99.90
32698;DHT22;19087;51.062;3.754;2023-04-25T01:37:00;10.80;99.90
32698;DHT22;19087;51.062;3.754;2023-04-25T01:39:29;10.70;99.90
32698;DHT22;19087;51.062;3.754;2023-04-25T01:41:54;10.70;99.90
32698;DHT22;19087;51.062;3.754;2023-04-25T01:44:20;10.70;99.90
32698;DHT22;19087;51.062;3.754;2023-04-25T01:46:46;10.60;99.90
32698;DHT22;19087;51.062;3.754;2023-04-25T01:49:11;10.50;99.90
32698;DHT22;19087;51.062;3.754;2023-04-25T01:51:37;10.60;99.90
32698;DHT22;19087;51.062;3.754;2023-04-25T01:54:03;10.50;99.90
32698;DHT22;19087;51.062;3.754;2023-04-25T01:56:32;10.40;99.90
32698;DHT22;19087;51.062;3.754;2023-04-25T01:58:58;10.30;99.90
32698;DHT22;19087;51.062;3.754;2023-04-25T02:01:24;10.40;99.90
32698;DHT22;19087;51.062;3.754;2023-04-25T02:03:50;10.40;99.90
32698;DHT22;19087;51.062;3.754;2023-04-25T02:06:17;10.20;99.90
32698;DHT22;19087;51.062;3.754;2023-04-25T02:08:42;10.30;99.90
32698;DHT22;19087;51.062;3.754;2023-04-25T02:11:08;10.30;99.90
32698;DHT22;19087;51.062;3.754;2023-04-25T02:13:33;10.10;99.90
32698;DHT22;19087;51.062;3.754;2023-04-25T02:15:59;10.00;99.90
32698;DHT22;19087;51.062;3.754;2023-04-25T02:18:25;10.00;99.90
32698;DHT22;19087;51.062;3.754;2023-04-25T02:20:52;10.00;99.90
32698;DHT22;19087;51.062;3.754;2023-04-25T02:23:18;9.90;99.90
32698;DHT22;19087;51.062;3.754;2023-04-25T02:25:46;10.00;99.90
32698;DHT22;19087;51.062;3.754;2023-04-25T02:28:12;10.00;99.90
32698;DHT22;19087;51.062;3.754;2023-04-25T02:30:38;10.00;99.90
32698;DHT22;19087;51.062;3.754;2023-04-25T02:33:03;10.00;99.90
32698;DHT22;19087;51.062;3.754;2023-04-25T02:35:29;10.00;99.90
32698;DHT22;19087;51.062;3.754;2023-04-25T02:37:54;10.00;99.90
32698;DHT22;19087;51.062;3.754;2023-04-25T02:40:20;10.00;99.90
32698;DHT22;19087;51.062;3.754;2023-04-25T02:42:46;10.10;99.90
32698;DHT22;19087;51.062;3.754;2023-04-25T02:45:11;10.10;99.90
32698;DHT22;19087;51.062;3.754;2023-04-25T02:47:37;10.10;99.90
32698;DHT22;19087;51.062;3.754;2023-04-25T02:50:03;10.00;99.90
32698;DHT22;19087;51.062;3.754;2023-04-25T02:52:29;10.00;99.90
32698;DHT22;19087;51.062;3.754;2023-04-25T02:54:54;10.20;99.90
32698;DHT22;19087;51.062;3.754;2023-04-25T02:57:20;10.20;99.90
32698;DHT22;19087;51.062;3.754;2023-04-25T02:59:46;10.30;99.90
32698;DHT22;19087;51.062;3.754;2023-04-25T03:02:11;10.30;99.90
32698;DHT22;19087;51.062;3.754;2023-04-25T03:04:38;10.30;99.90
32698;DHT22;19087;51.062;3.754;2023-04-25T03:07:04;10.20;99.90
32698;DHT22;19087;51.062;3.754;2023-04-25T03:09:30;10.10;99.90
32698;DHT22;19087;51.062;3.754;2023-04-25T03:11:55;10.10;99.90
32698;DHT22;19087;51.062;3.754;2023-04-25T03:14:21;10.00;99.90
32698;DHT22;19087;51.062;3.754;2023-04-25T03:16:46;9.90;99.90
32698;DHT22;19087;51.062;3.754;2023-04-25T03:19:12;10.00;99.90
32698;DHT22;19087;51.062;3.754;2023-04-25T03:21:37;9.90;99.90
32698;DHT22;19087;51.062;3.754;2023-04-25T03:24:04;9.90;99.90
32698;DHT22;19087;51.062;3.754;2023-04-25T03:26:29;9.80;99.90
32698;DHT22;19087;51.062;3.754;2023-04-25T03:28:55;9.60;99.90
32698;DHT22;19087;51.062;3.754;2023-04-25T03:31:20;9.60;99.90
32698;DHT22;19087;51.062;3.754;2023-04-25T03:33:47;9.50;99.90
32698;DHT22;19087;51.062;3.754;2023-04-25T03:36:12;9.50;99.90
32698;DHT22;19087;51.062;3.754;2023-04-25T03:38:38;9.40;99.90
32698;DHT22;19087;51.062;3.754;2023-04-25T03:41:03;9.10;99.90
32698;DHT22;19087;51.062;3.754;2023-04-25T03:43:29;9.20;99.90
32698;DHT22;19087;51.062;3.754;2023-04-25T03:45:54;9.30;99.90
32698;DHT22;19087;51.062;3.754;2023-04-25T03:48:20;9.40;99.90
32698;DHT22;19087;51.062;3.754;2023-04-25T03:50:52;9.40;99.90
32698;DHT22;19087;51.062;3.754;2023-04-25T03:53:18;9.40;99.90
32698;DHT22;19087;51.062;3.754;2023-04-25T03:55:44;9.40;99.90
32698;DHT22;19087;51.062;3.754;2023-04-25T03:58:10;9.40;99.90
32698;DHT22;19087;51.062;3.754;2023-04-25T04:00:36;9.40;99.90
32698;DHT22;19087;51.062;3.754;2023-04-25T04:03:01;9.50;99.90
32698;DHT22;19087;51.062;3.754;2023-04-25T04:05:27;9.50;99.90
32698;DHT22;19087;51.062;3.754;2023-04-25T04:07:53;9.60;99.90
32698;DHT22;19087;51.062;3.754;2023-04-25T04:10:19;9.50;99.90
32698;DHT22;19087;51.062;3.754;2023-04-25T04:12:45;9.50;99.90
32698;DHT22;19087;51.062;3.754;2023-04-25T04:15:11;9.60;99.90
32698;DHT22;19087;51.062;3.754;2023-04-25T04:17:37;9.60;99.90
32698;DHT22;19087;51.062;3.754;2023-04-25T04:20:03;9.60;99.90
32698;DHT22;19087;51.062;3.754;2023-04-25T04:22:29;9.50;99.90
32698;DHT22;19087;51.062;3.754;2023-04-25T04:24:54;9.50;99.90
32698;DHT22;19087;51.062;3.754;2023-04-25T04:27:22;9.50;99.90
32698;DHT22;19087;51.062;3.754;2023-04-25T04:29:48;9.20;99.90
32698;DHT22;19087;51.062;3.754;2023-04-25T04:32:14;9.30;99.90
32698;DHT22;19087;51.062;3.754;2023-04-25T04:34:40;9.30;99.90
32698;DHT22;19087;51.062;3.754;2023-04-25T04:37:06;9.30;99.90
32698;DHT22;19087;51.062;3.754;2023-04-25T04:39:35;9.10;99.90
32698;DHT22;19087;51.062;3.754;2023-04-25T04:42:01;9.40;99.90
32698;DHT22;19087;51.062;3.754;2023-04-25T04:44:27;9.30;99.90
32698;DHT22;19087;51.062;3.754;2023-04-25T04:46:53;9.30;99.90
32698;DHT22;19087;51.062;3.754;2023-04-25T04:49:21;9.30;99.90
32698;DHT22;19087;51.062;3.754;2023-04-25T04:51:46;9.50;99.90
32698;DHT22;19087;51.062;3.754;2023-04-25T04:54:12;9.50;99.90
32698;DHT22;19087;51.062;3.754;2023-04-25T04:56:38;9.60;99.90
32698;DHT22;19087;51.062;3.754;2023-04-25T04:59:04;9.60;99.90
32698;DHT22;19087;51.062;3.754;2023-04-25T05:01:30;9.60;99.90
32698;DHT22;19087;51.062;3.754;2023-04-25T05:03:56;9.30;99.90
32698;DHT22;19087;51.062;3.754;2023-04-25T05:06:26;9.20;99.90
32698;DHT22;19087;51.062;3.754;2023-04-25T05:08:52;9.20;99.90
32698;DHT22;19087;51.062;3.754;2023-04-25T05:11:19;9.30;99.90
32698;DHT22;19087;51.062;3.754;2023-04-25T05:13:44;9.10;99.90
32698;DHT22;19087;51.062;3.754;2023-04-25T05:16:11;9.30;99.90
32698;DHT22;19087;51.062;3.754;2023-04-25T05:18:37;9.40;99.90
32698;DHT22;19087;51.062;3.754;2023-04-25T05:21:02;9.50;99.90
32698;DHT22;19087;51.062;3.754;2023-04-25T05:23:28;9.50;99.90
32698;DHT22;19087;51.062;3.754;2023-04-25T05:25:55;9.50;99.90
32698;DHT22;19087;51.062;3.754;2023-04-25T05:28:21;9.70;99.90
32698;DHT22;19087;51.062;3.754;2023-04-25T05:30:47;9.60;99.90
32698;DHT22;19087;51.062;3.754;2023-04-25T05:33:12;9.80;99.90
32698;DHT22;19087;51.062;3.754;2023-04-25T05:35:38;9.90;99.90
32698;DHT22;19087;51.062;3.754;2023-04-25T05:38:04;9.90;99.90
32698;DHT22;19087;51.062;3.754;2023-04-25T05:40:29;9.90;99.90
32698;DHT22;19087;51.062;3.754;2023-04-25T05:42:55;10.10;99.90
32698;DHT22;19087;51.062;3.754;2023-04-25T05:45:20;10.20;99.90
32698;DHT22;19087;51.062;3.754;2023-04-25T05:47:46;10.30;99.90
32698;DHT22;19087;51.062;3.754;2023-04-25T05:50:12;10.40;99.90
32698;DHT22;19087;51.062;3.754;2023-04-25T05:52:37;10.40;99.90
32698;DHT22;19087;51.062;3.754;2023-04-25T05:55:04;10.60;99.90
32698;DHT22;19087;51.062;3.754;2023-04-25T05:57:29;10.70;99.90
32698;DHT22;19087;51.062;3.754;2023-04-25T05:59:55;10.80;99.90
32698;DHT22;19087;51.062;3.754;2023-04-25T06:02:21;11.00;99.90
32698;DHT22;19087;51.062;3.754;2023-04-25T06:04:47;10.90;99.90
32698;DHT22;19087;51.062;3.754;2023-04-25T06:07:13;10.90;99.90
32698;DHT22;19087;51.062;3.754;2023-04-25T06:09:38;10.90;99.90
32698;DHT22;19087;51.062;3.754;2023-04-25T06:12:05;10.90;99.90
32698;DHT22;19087;51.062;3.754;2023-04-25T06:14:30;10.80;99.90
32698;DHT22;19087;51.062;3.754;2023-04-25T06:16:56;10.80;99.90
32698;DHT22;19087;51.062;3.754;2023-04-25T06:19:22;10.80;99.90
32698;DHT22;19087;51.062;3.754;2023-04-25T06:21:48;10.70;99.90
32698;DHT22;19087;51.062;3.754;2023-04-25T06:24:14;10.70;99.90
32698;DHT22;19087;51.062;3.754;2023-04-25T06:26:39;10.80;99.90
32698;DHT22;19087;51.062;3.754;2023-04-25T06:29:05;10.80;99.90
32698;DHT22;19087;51.062;3.754;2023-04-25T06:31:30;10.90;99.90
32698;DHT22;19087;51.062;3.754;2023-04-25T06:33:58;11.00;99.90
32698;DHT22;19087;51.062;3.754;2023-04-25T06:36:24;11.20;99.90
32698;DHT22;19087;51.062;3.754;2023-04-25T06:38:51;11.10;99.90
32698;DHT22;19087;51.062;3.754;2023-04-25T06:41:17;11.10;99.90
32698;DHT22;19087;51.062;3.754;2023-04-25T06:43:43;11.10;99.90
32698;DHT22;19087;51.062;3.754;2023-04-25T06:46:08;11.00;99.90
32698;DHT22;19087;51.062;3.754;2023-04-25T06:48:35;11.00;99.90
32698;DHT22;19087;51.062;3.754;2023-04-25T06:51:00;10.90;99.90
32698;DHT22;19087;51.062;3.754;2023-04-25T06:53:26;10.90;99.90
32698;DHT22;19087;51.062;3.754;2023-04-25T06:55:52;10.80;99.90
32698;DHT22;19087;51.062;3.754;2023-04-25T06:58:17;10.80;99.90
32698;DHT22;19087;51.062;3.754;2023-04-25T07:00:43;10.90;99.90
32698;DHT22;19087;51.062;3.754;2023-04-25T07:03:08;10.90;99.90
32698;DHT22;19087;51.062;3.754;2023-04-25T07:05:35;10.80;99.90
32698;DHT22;19087;51.062;3.754;2023-04-25T07:08:01;10.90;99.90
32698;DHT22;19087;51.062;3.754;2023-04-25T07:10:27;11.00;99.90
32698;DHT22;19087;51.062;3.754;2023-04-25T07:12:53;11.30;99.90
32698;DHT22;19087;51.062;3.754;2023-04-25T07:15:19;11.50;99.90
32698;DHT22;19087;51.062;3.754;2023-04-25T07:17:44;12.30;99.90
32698;DHT22;19087;51.062;3.754;2023-04-25T07:20:10;13.20;99.90
32698;DHT22;19087;51.062;3.754;2023-04-25T07:22:36;14.30;99.90
32698;DHT22;19087;51.062;3.754;2023-04-25T07:25:01;15.40;97.60
32698;DHT22;19087;51.062;3.754;2023-04-25T07:27:28;16.50;96.60
32698;DHT22;19087;51.062;3.754;2023-04-25T07:29:54;17.30;94.80
32698;DHT22;19087;51.062;3.754;2023-04-25T07:32:20;17.40;94.00
32698;DHT22;19087;51.062;3.754;2023-04-25T07:34:45;17.50;93.10
32698;DHT22;19087;51.062;3.754;2023-04-25T07:37:11;17.10;93.00
32698;DHT22;19087;51.062;3.754;2023-04-25T07:39:36;16.40;93.30
32698;DHT22;19087;51.062;3.754;2023-04-25T07:42:02;16.60;93.10
32698;DHT22;19087;51.062;3.754;2023-04-25T07:44:29;16.40;93.00
32698;DHT22;19087;51.062;3.754;2023-04-25T07:46:55;16.40;93.40
32698;DHT22;19087;51.062;3.754;2023-04-25T07:49:21;16.60;92.60
32698;DHT22;19087;51.062;3.754;2023-04-25T07:51:47;16.80;91.80
32698;DHT22;19087;51.062;3.754;2023-04-25T07:54:13;17.40;91.20
32698;DHT22;19087;51.062;3.754;2023-04-25T07:56:39;17.80;90.50
32698;DHT22;19087;51.062;3.754;2023-04-25T07:59:04;18.50;89.70
32698;DHT22;19087;51.062;3.754;2023-04-25T08:01:30;18.40;89.30
32698;DHT22;19087;51.062;3.754;2023-04-25T08:03:56;18.20;90.00
32698;DHT22;19087;51.062;3.754;2023-04-25T08:06:21;18.40;88.80
32698;DHT22;19087;51.062;3.754;2023-04-25T08:08:47;18.40;86.80
32698;DHT22;19087;51.062;3.754;2023-04-25T08:11:12;18.20;87.80
32698;DHT22;19087;51.062;3.754;2023-04-25T08:13:38;18.00;86.40
32698;DHT22;19087;51.062;3.754;2023-04-25T08:16:04;17.20;86.30
32698;DHT22;19087;51.062;3.754;2023-04-25T08:18:29;16.60;88.10
32698;DHT22;19087;51.062;3.754;2023-04-25T08:20:56;16.20;89.80
32698;DHT22;19087;51.062;3.754;2023-04-25T08:23:21;15.50;89.30
32698;DHT22;19087;51.062;3.754;2023-04-25T08:25:47;15.00;89.70
32698;DHT22;19087;51.062;3.754;2023-04-25T08:28:13;14.50;90.60
32698;DHT22;19087;51.062;3.754;2023-04-25T08:30:38;14.70;91.20
32698;DHT22;19087;51.062;3.754;2023-04-25T08:33:04;15.60;90.70
32698;DHT22;19087;51.062;3.754;2023-04-25T08:35:29;16.50;89.20
32698;DHT22;19087;51.062;3.754;2023-04-25T08:37:55;17.00;86.30
32698;DHT22;19087;51.062;3.754;2023-04-25T08:40:21;17.50;84.20
32698;DHT22;19087;51.062;3.754;2023-04-25T08:42:52;17.60;82.00
32698;DHT22;19087;51.062;3.754;2023-04-25T08:45:19;17.20;82.30
32698;DHT22;19087;51.062;3.754;2023-04-25T08:47:45;16.80;83.80
32698;DHT22;19087;51.062;3.754;2023-04-25T08:50:12;15.80;84.90
32698;DHT22;19087;51.062;3.754;2023-04-25T08:52:39;15.60;86.80
32698;DHT22;19087;51.062;3.754;2023-04-25T08:55:08;14.90;87.80
32698;DHT22;19087;51.062;3.754;2023-04-25T08:57:34;14.60;89.80
32698;DHT22;19087;51.062;3.754;2023-04-25T09:00:00;14.70;89.30
32698;DHT22;19087;51.062;3.754;2023-04-25T09:02:26;14.90;86.60
32698;DHT22;19087;51.062;3.754;2023-04-25T09:04:52;14.60;86.20
32698;DHT22;19087;51.062;3.754;2023-04-25T09:07:19;14.60;87.50
32698;DHT22;19087;51.062;3.754;2023-04-25T09:09:46;14.30;89.10
32698;DHT22;19087;51.062;3.754;2023-04-25T09:12:12;14.10;90.00
32698;DHT22;19087;51.062;3.754;2023-04-25T09:14:38;13.80;90.70
32698;DHT22;19087;51.062;3.754;2023-04-25T09:17:04;13.10;95.20
32698;DHT22;19087;51.062;3.754;2023-04-25T09:19:31;12.80;97.40
32698;DHT22;19087;51.062;3.754;2023-04-25T09:21:59;12.50;99.90
32698;DHT22;19087;51.062;3.754;2023-04-25T09:24:35;11.80;99.90
32698;DHT22;19087;51.062;3.754;2023-04-25T09:27:09;11.20;99.90
32698;DHT22;19087;51.062;3.754;2023-04-25T09:29:35;10.60;99.90
32698;DHT22;19087;51.062;3.754;2023-04-25T09:32:20;10.40;99.90
32698;DHT22;19087;51.062;3.754;2023-04-25T09:34:50;10.20;99.90
32698;DHT22;19087;51.062;3.754;2023-04-25T09:37:19;10.20;99.90
32698;DHT22;19087;51.062;3.754;2023-04-25T09:39:46;10.30;99.90
32698;DHT22;19087;51.062;3.754;2023-04-25T09:42:13;10.40;99.90
32698;DHT22;19087;51.062;3.754;2023-04-25T09:44:42;10.70;99.90
32698;DHT22;19087;51.062;3.754;2023-04-25T09:47:09;11.10;99.90
32698;DHT22;19087;51.062;3.754;2023-04-25T09:49:35;11.40;99.10
32698;DHT22;19087;51.062;3.754;2023-04-25T09:52:06;11.70;98.20
32698;DHT22;19087;51.062;3.754;2023-04-25T09:54:31;12.10;97.50
32698;DHT22;19087;51.062;3.754;2023-04-25T09:56:57;12.40;96.80
32698;DHT22;19087;51.062;3.754;2023-04-25T09:59:23;12.70;96.40
32698;DHT22;19087;51.062;3.754;2023-04-25T10:01:49;12.80;95.80
32698;DHT22;19087;51.062;3.754;2023-04-25T10:04:19;13.10;96.50
32698;DHT22;19087;51.062;3.754;2023-04-25T10:06:45;13.30;95.70
32698;DHT22;19087;51.062;3.754;2023-04-25T10:09:14;13.50;93.90
32698;DHT22;19087;51.062;3.754;2023-04-25T10:11:40;13.40;93.90
32698;DHT22;19087;51.062;3.754;2023-04-25T10:14:06;13.40;94.20
32698;DHT22;19087;51.062;3.754;2023-04-25T10:16:32;13.80;93.90
32698;DHT22;19087;51.062;3.754;2023-04-25T10:18:58;14.10;93.10
32698;DHT22;19087;51.062;3.754;2023-04-25T10:21:24;14.30;93.10
32698;DHT22;19087;51.062;3.754;2023-04-25T10:23:52;14.20;93.60
32698;DHT22;19087;51.062;3.754;2023-04-25T10:26:17;14.10;94.50
32698;DHT22;19087;51.062;3.754;2023-04-25T10:29:02;14.00;94.70
32698;DHT22;19087;51.062;3.754;2023-04-25T10:31:29;13.60;95.70
32698;DHT22;19087;51.062;3.754;2023-04-25T10:33:55;13.40;95.70
32698;DHT22;19087;51.062;3.754;2023-04-25T10:36:23;13.10;95.80
32698;DHT22;19087;51.062;3.754;2023-04-25T10:38:49;13.10;96.80
32698;DHT22;19087;51.062;3.754;2023-04-25T10:41:20;12.90;96.20
32698;DHT22;19087;51.062;3.754;2023-04-25T10:43:47;12.70;96.60
32698;DHT22;19087;51.062;3.754;2023-04-25T10:46:26;12.70;96.60
32698;DHT22;19087;51.062;3.754;2023-04-25T10:48:52;12.50;95.80
32698;DHT22;19087;51.062;3.754;2023-04-25T10:51:22;12.20;95.90
32698;DHT22;19087;51.062;3.754;2023-04-25T10:56:20;12.40;95.90
32698;DHT22;19087;51.062;3.754;2023-04-25T10:58:46;12.50;95.00
32698;DHT22;19087;51.062;3.754;2023-04-25T11:01:13;12.70;94.70
32698;DHT22;19087;51.062;3.754;2023-04-25T11:03:42;12.90;94.60
32698;DHT22;19087;51.062;3.754;2023-04-25T11:06:18;13.20;94.20
32698;DHT22;19087;51.062;3.754;2023-04-25T11:08:48;13.50;93.50
32698;DHT22;19087;51.062;3.754;2023-04-25T11:11:14;13.80;93.00
32698;DHT22;19087;51.062;3.754;2023-04-25T11:13:40;14.10;92.80
32698;DHT22;19087;51.062;3.754;2023-04-25T11:16:09;14.50;92.40
32698;DHT22;19087;51.062;3.754;2023-04-25T11:18:35;14.60;91.80
32698;DHT22;19087;51.062;3.754;2023-04-25T11:21:00;14.80;91.50
32698;DHT22;19087;51.062;3.754;2023-04-25T11:23:27;14.80;90.60
32698;DHT22;19087;51.062;3.754;2023-04-25T11:25:54;14.60;90.60
32698;DHT22;19087;51.062;3.754;2023-04-25T11:28:22;14.60;90.80
32698;DHT22;19087;51.062;3.754;2023-04-25T11:30:49;14.60;87.50
32698;DHT22;19087;51.062;3.754;2023-04-25T11:33:17;14.40;87.20
32698;DHT22;19087;51.062;3.754;2023-04-25T11:35:43;14.30;88.90
32698;DHT22;19087;51.062;3.754;2023-04-25T11:38:08;14.50;89.90
32698;DHT22;19087;51.062;3.754;2023-04-25T11:40:35;14.40;90.50
32698;DHT22;19087;51.062;3.754;2023-04-25T11:43:01;14.60;90.70
32698;DHT22;19087;51.062;3.754;2023-04-25T11:45:27;14.70;90.60
32698;DHT22;19087;51.062;3.754;2023-04-25T11:47:52;14.60;91.30
32698;DHT22;19087;51.062;3.754;2023-04-25T11:50:18;14.70;91.50
32698;DHT22;19087;51.062;3.754;2023-04-25T11:52:44;14.80;91.10
32698;DHT22;19087;51.062;3.754;2023-04-25T11:55:17;14.70;88.10
32698;DHT22;19087;51.062;3.754;2023-04-25T11:57:43;14.20;86.90
32698;DHT22;19087;51.062;3.754;2023-04-25T12:00:16;14.00;86.00
32698;DHT22;19087;51.062;3.754;2023-04-25T12:02:43;13.80;86.10
32698;DHT22;19087;51.062;3.754;2023-04-25T12:05:09;13.60;88.00
32698;DHT22;19087;51.062;3.754;2023-04-25T12:07:35;13.60;90.20
32698;DHT22;19087;51.062;3.754;2023-04-25T12:10:05;13.40;90.40
32698;DHT22;19087;51.062;3.754;2023-04-25T12:12:32;13.50;91.00
32698;DHT22;19087;51.062;3.754;2023-04-25T12:15:07;13.60;91.90
32698;DHT22;19087;51.062;3.754;2023-04-25T12:17:35;13.80;91.30
32698;DHT22;19087;51.062;3.754;2023-04-25T12:20:09;13.90;91.30
32698;DHT22;19087;51.062;3.754;2023-04-25T12:22:35;14.10;91.40
32698;DHT22;19087;51.062;3.754;2023-04-25T12:25:02;14.50;91.50
32698;DHT22;19087;51.062;3.754;2023-04-25T12:27:30;14.80;91.30
32698;DHT22;19087;51.062;3.754;2023-04-25T12:29:56;14.70;90.90
32698;DHT22;19087;51.062;3.754;2023-04-25T12:32:22;14.50;90.10
32698;DHT22;19087;51.062;3.754;2023-04-25T12:34:48;14.50;91.10
32698;DHT22;19087;51.062;3.754;2023-04-25T12:37:13;14.30;91.30
32698;DHT22;19087;51.062;3.754;2023-04-25T12:39:39;14.30;91.70
32698;DHT22;19087;51.062;3.754;2023-04-25T12:42:04;14.30;91.00
32698;DHT22;19087;51.062;3.754;2023-04-25T12:44:34;14.20;90.80
32698;DHT22;19087;51.062;3.754;2023-04-25T12:47:00;13.90;90.60
32698;DHT22;19087;51.062;3.754;2023-04-25T12:49:25;13.90;90.90
32698;DHT22;19087;51.062;3.754;2023-04-25T12:51:51;14.00;90.90
32698;DHT22;19087;51.062;3.754;2023-04-25T12:54:17;14.10;91.40
32698;DHT22;19087;51.062;3.754;2023-04-25T12:56:42;13.90;91.80
32698;DHT22;19087;51.062;3.754;2023-04-25T12:59:08;13.60;92.70
32698;DHT22;19087;51.062;3.754;2023-04-25T13:01:34;13.50;93.00
32698;DHT22;19087;51.062;3.754;2023-04-25T13:04:00;13.40;92.40
32698;DHT22;19087;51.062;3.754;2023-04-25T13:06:26;13.40;93.00
32698;DHT22;19087;51.062;3.754;2023-04-25T13:08:51;13.30;92.50
32698;DHT22;19087;51.062;3.754;2023-04-25T13:11:17;13.30;91.30
32698;DHT22;19087;51.062;3.754;2023-04-25T13:13:43;13.30;91.70
32698;DHT22;19087;51.062;3.754;2023-04-25T13:16:08;13.60;92.40
32698;DHT22;19087;51.062;3.754;2023-04-25T13:18:34;13.50;92.30
32698;DHT22;19087;51.062;3.754;2023-04-25T13:21:00;13.40;92.80
32698;DHT22;19087;51.062;3.754;2023-04-25T13:23:26;13.10;93.70
32698;DHT22;19087;51.062;3.754;2023-04-25T13:25:52;13.10;94.10
32698;DHT22;19087;51.062;3.754;2023-04-25T13:28:18;12.90;94.40
32698;DHT22;19087;51.062;3.754;2023-04-25T13:30:44;12.70;94.40
32698;DHT22;19087;51.062;3.754;2023-04-25T13:33:09;12.60;94.90
32698;DHT22;19087;51.062;3.754;2023-04-25T13:35:36;12.50;95.10
32698;DHT22;19087;51.062;3.754;2023-04-25T13:38:02;12.50;94.90
32698;DHT22;19087;51.062;3.754;2023-04-25T13:40:27;12.30;95.30
32698;DHT22;19087;51.062;3.754;2023-04-25T13:42:53;12.20;95.60
32698;DHT22;19087;51.062;3.754;2023-04-25T13:45:19;12.30;95.70
32698;DHT22;19087;51.062;3.754;2023-04-25T13:47:44;12.50;95.20
32698;DHT22;19087;51.062;3.754;2023-04-25T13:50:10;12.40;94.90
32698;DHT22;19087;51.062;3.754;2023-04-25T13:52:36;12.30;94.20
32698;DHT22;19087;51.062;3.754;2023-04-25T13:55:01;12.20;94.10
32698;DHT22;19087;51.062;3.754;2023-04-25T13:57:31;12.10;94.50
32698;DHT22;19087;51.062;3.754;2023-04-25T13:59:57;12.40;94.00
32698;DHT22;19087;51.062;3.754;2023-04-25T14:02:22;12.70;93.90
32698;DHT22;19087;51.062;3.754;2023-04-25T14:04:48;12.70;93.60
32698;DHT22;19087;51.062;3.754;2023-04-25T14:07:14;12.70;94.00
32698;DHT22;19087;51.062;3.754;2023-04-25T14:09:43;12.90;93.40
32698;DHT22;19087;51.062;3.754;2023-04-25T14:12:10;12.80;92.60
32698;DHT22;19087;51.062;3.754;2023-04-25T14:14:36;13.00;92.30
32698;DHT22;19087;51.062;3.754;2023-04-25T14:17:03;12.90;92.30
32698;DHT22;19087;51.062;3.754;2023-04-25T14:19:28;12.90;92.40
32698;DHT22;19087;51.062;3.754;2023-04-25T14:21:54;12.60;92.60
32698;DHT22;19087;51.062;3.754;2023-04-25T14:24:21;12.60;92.60
32698;DHT22;19087;51.062;3.754;2023-04-25T14:26:47;12.70;92.00
32698;DHT22;19087;51.062;3.754;2023-04-25T14:29:13;12.60;92.30
32698;DHT22;19087;51.062;3.754;2023-04-25T14:31:39;12.40;91.80
32698;DHT22;19087;51.062;3.754;2023-04-25T14:34:05;12.40;91.50
32698;DHT22;19087;51.062;3.754;2023-04-25T14:36:33;12.30;91.60
32698;DHT22;19087;51.062;3.754;2023-04-25T14:38:59;12.30;91.60
32698;DHT22;19087;51.062;3.754;2023-04-25T14:41:25;12.40;92.10
32698;DHT22;19087;51.062;3.754;2023-04-25T14:43:51;12.50;92.10
32698;DHT22;19087;51.062;3.754;2023-04-25T14:46:21;12.80;92.10
32698;DHT22;19087;51.062;3.754;2023-04-25T14:48:48;13.10;92.00
32698;DHT22;19087;51.062;3.754;2023-04-25T14:51:14;13.50;90.50
32698;DHT22;19087;51.062;3.754;2023-04-25T14:53:40;13.80;90.20
32698;DHT22;19087;51.062;3.754;2023-04-25T14:56:06;13.80;90.10
32698;DHT22;19087;51.062;3.754;2023-04-25T14:58:33;14.00;90.00
32698;DHT22;19087;51.062;3.754;2023-04-25T15:00:59;14.10;88.50
32698;DHT22;19087;51.062;3.754;2023-04-25T15:03:24;14.20;88.90
32698;DHT22;19087;51.062;3.754;2023-04-25T15:05:50;14.00;90.00
32698;DHT22;19087;51.062;3.754;2023-04-25T15:08:16;14.00;90.00
32698;DHT22;19087;51.062;3.754;2023-04-25T15:10:41;13.90;90.10
32698;DHT22;19087;51.062;3.754;2023-04-25T15:13:07;13.70;90.00
32698;DHT22;19087;51.062;3.754;2023-04-25T15:15:36;13.70;90.40
32698;DHT22;19087;51.062;3.754;2023-04-25T15:18:09;13.50;90.00
32698;DHT22;19087;51.062;3.754;2023-04-25T15:20:35;13.60;88.70
32698;DHT22;19087;51.062;3.754;2023-04-25T15:23:01;13.50;89.00
32698;DHT22;19087;51.062;3.754;2023-04-25T15:25:28;13.60;88.90
32698;DHT22;19087;51.062;3.754;2023-04-25T15:27:54;13.40;89.20
32698;DHT22;19087;51.062;3.754;2023-04-25T15:30:20;13.20;90.50
32698;DHT22;19087;51.062;3.754;2023-04-25T15:32:46;13.40;90.60